sensor_id;sensor_type;location;lat;lon;timestamp;P1;durP1;ratioP1;P2;durP2;ratioP2
22270;SDS011;11304;53.520;10.104;2023-10-31T00:01:54;7.07;;;3.88;;
22270;SDS011;11304;53.520;10.104;2023-10-31T00:04:20;7.65;;;4.00;;
22270;SDS011;11304;53.520;10.104;2023-10-31T00:06:47;6.40;;;3.75;;
22270;SDS011;11304;53.520;10.104;2023-10-31T00:09:13;4.90;;;3.72;;
22270;SDS011;11304;53.520;10.104;2023-10-31T00:11:40;8.00;;;3.63;;
22270;SDS011;11304;53.520;10.104;2023-10-31T00:14:08;7.95;;;3.65;;
22270;SDS011;11304;53.520;10.104;2023-10-31T00:16:34;10.43;;;3.55;;
22270;SDS011;11304;53.520;10.104;2023-10-31T00:19:00;10.25;;;4.20;;
22270;SDS011;11304;53.520;10.104;2023-10-31T00:21:26;8.57;;;4.13;;
22270;SDS011;11304;53.520;10.104;2023-10-31T00:23:52;7.40;;;3.67;;
22270;SDS011;11304;53.520;10.104;2023-10-31T00:26:18;7.85;;;3.50;;
22270;SDS011;11304;53.520;10.104;2023-10-31T00:28:44;7.35;;;3.50;;
22270;SDS011;11304;53.520;10.104;2023-10-31T00:31:10;7.82;;;4.25;;
22270;SDS011;11304;53.520;10.104;2023-10-31T00:33:37;6.55;;;4.00;;
22270;SDS011;11304;53.520;10.104;2023-10-31T00:36:03;5.65;;;4.22;;
22270;SDS011;11304;53.520;10.104;2023-10-31T00:38:29;9.20;;;4.15;;
22270;SDS011;11304;53.520;10.104;2023-10-31T00:40:55;7.22;;;3.72;;
22270;SDS011;11304;53.520;10.104;2023-10-31T00:43:21;9.25;;;4.88;;
22270;SDS011;11304;53.520;10.104;2023-10-31T00:45:47;7.35;;;3.83;;
22270;SDS011;11304;53.520;10.104;2023-10-31T00:48:13;8.43;;;4.50;;
22270;SDS011;11304;53.520;10.104;2023-10-31T00:50:39;11.98;;;4.78;;
22270;SDS011;11304;53.520;10.104;2023-10-31T00:53:06;7.80;;;4.50;;
22270;SDS011;11304;53.520;10.104;2023-10-31T00:55:32;9.40;;;4.90;;
22270;SDS011;11304;53.520;10.104;2023-10-31T00:57:59;9.43;;;5.10;;
22270;SDS011;11304;53.520;10.104;2023-10-31T01:00:25;7.85;;;4.80;;
22270;SDS011;11304;53.520;10.104;2023-10-31T01:02:51;8.60;;;5.07;;
22270;SDS011;11304;53.520;10.104;2023-10-31T01:05:17;7.53;;;4.25;;
22270;SDS011;11304;53.520;10.104;2023-10-31T01:07:43;7.70;;;4.95;;
22270;SDS011;11304;53.520;10.104;2023-10-31T01:10:09;7.55;;;4.68;;
22270;SDS011;11304;53.520;10.104;2023-10-31T01:12:35;9.77;;;4.93;;
22270;SDS011;11304;53.520;10.104;2023-10-31T01:15:01;11.85;;;6.18;;
22270;SDS011;11304;53.520;10.104;2023-10-31T01:17:27;14.60;;;6.20;;
22270;SDS011;11304;53.520;10.104;2023-10-31T01:19:53;7.80;;;5.40;;
22270;SDS011;11304;53.520;10.104;2023-10-31T01:22:19;7.18;;;4.82;;
22270;SDS011;11304;53.520;10.104;2023-10-31T01:24:45;7.07;;;5.25;;
22270;SDS011;11304;53.520;10.104;2023-10-31T01:27:11;8.30;;;5.22;;
22270;SDS011;11304;53.520;10.104;2023-10-31T01:29:37;9.20;;;5.53;;
22270;SDS011;11304;53.520;10.104;2023-10-31T01:32:04;7.70;;;5.68;;
22270;SDS011;11304;53.520;10.104;2023-10-31T01:34:30;13.52;;;5.80;;
22270;SDS011;11304;53.520;10.104;2023-10-31T01:36:56;6.85;;;5.63;;
22270;SDS011;11304;53.520;10.104;2023-10-31T01:39:22;8.50;;;5.50;;
22270;SDS011;11304;53.520;10.104;2023-10-31T01:41:48;6.68;;;5.50;;
22270;SDS011;11304;53.520;10.104;2023-10-31T01:44:14;9.43;;;5.50;;
22270;SDS011;11304;53.520;10.104;2023-10-31T01:46:40;7.15;;;5.18;;
22270;SDS011;11304;53.520;10.104;2023-10-31T01:49:06;9.05;;;6.30;;
22270;SDS011;11304;53.520;10.104;2023-10-31T01:51:32;6.03;;;5.43;;
22270;SDS011;11304;53.520;10.104;2023-10-31T01:53:58;10.48;;;6.47;;
22270;SDS011;11304;53.520;10.104;2023-10-31T01:56:24;12.48;;;6.25;;
22270;SDS011;11304;53.520;10.104;2023-10-31T01:58:51;12.77;;;6.43;;
22270;SDS011;11304;53.520;10.104;2023-10-31T02:01:17;10.77;;;6.38;;
22270;SDS011;11304;53.520;10.104;2023-10-31T02:03:43;12.75;;;5.97;;
22270;SDS011;11304;53.520;10.104;2023-10-31T02:06:09;11.43;;;6.20;;
22270;SDS011;11304;53.520;10.104;2023-10-31T02:08:35;11.30;;;5.88;;
22270;SDS011;11304;53.520;10.104;2023-10-31T02:11:02;12.13;;;5.68;;
22270;SDS011;11304;53.520;10.104;2023-10-31T02:13:28;8.20;;;5.75;;
22270;SDS011;11304;53.520;10.104;2023-10-31T02:15:54;9.15;;;5.60;;
22270;SDS011;11304;53.520;10.104;2023-10-31T02:18:21;11.02;;;5.88;;
22270;SDS011;11304;53.520;10.104;2023-10-31T02:20:47;10.30;;;5.88;;
22270;SDS011;11304;53.520;10.104;2023-10-31T02:23:17;7.68;;;5.60;;
22270;SDS011;11304;53.520;10.104;2023-10-31T02:25:43;7.68;;;5.43;;
22270;SDS011;11304;53.520;10.104;2023-10-31T02:28:09;8.68;;;5.38;;
22270;SDS011;11304;53.520;10.104;2023-10-31T02:30:35;7.10;;;5.35;;
22270;SDS011;11304;53.520;10.104;2023-10-31T02:33:01;7.40;;;5.40;;
22270;SDS011;11304;53.520;10.104;2023-10-31T02:35:27;14.00;;;6.20;;
22270;SDS011;11304;53.520;10.104;2023-10-31T02:37:53;8.10;;;5.53;;
22270;SDS011;11304;53.520;10.104;2023-10-31T02:40:19;12.45;;;5.50;;
22270;SDS011;11304;53.520;10.104;2023-10-31T02:42:46;7.30;;;5.68;;
22270;SDS011;11304;53.520;10.104;2023-10-31T02:45:12;8.57;;;5.60;;
22270;SDS011;11304;53.520;10.104;2023-10-31T02:47:38;8.73;;;5.38;;
22270;SDS011;11304;53.520;10.104;2023-10-31T02:50:04;8.82;;;6.10;;
22270;SDS011;11304;53.520;10.104;2023-10-31T02:52:31;12.68;;;6.22;;
22270;SDS011;11304;53.520;10.104;2023-10-31T02:54:57;13.75;;;5.93;;
22270;SDS011;11304;53.520;10.104;2023-10-31T02:57:23;9.60;;;5.68;;
22270;SDS011;11304;53.520;10.104;2023-10-31T02:59:49;10.95;;;5.75;;
22270;SDS011;11304;53.520;10.104;2023-10-31T03:02:15;8.43;;;5.90;;
22270;SDS011;11304;53.520;10.104;2023-10-31T03:04:41;7.28;;;5.80;;
22270;SDS011;11304;53.520;10.104;2023-10-31T03:07:07;8.10;;;5.65;;
22270;SDS011;11304;53.520;10.104;2023-10-31T03:09:33;12.35;;;6.72;;
22270;SDS011;11304;53.520;10.104;2023-10-31T03:11:59;11.65;;;6.82;;
22270;SDS011;11304;53.520;10.104;2023-10-31T03:14:25;7.55;;;5.97;;
22270;SDS011;11304;53.520;10.104;2023-10-31T03:16:51;9.52;;;6.05;;
22270;SDS011;11304;53.520;10.104;2023-10-31T03:19:17;13.32;;;6.32;;
22270;SDS011;11304;53.520;10.104;2023-10-31T03:21:43;14.20;;;6.45;;
22270;SDS011;11304;53.520;10.104;2023-10-31T03:24:09;9.25;;;6.20;;
22270;SDS011;11304;53.520;10.104;2023-10-31T03:26:35;8.60;;;5.85;;
22270;SDS011;11304;53.520;10.104;2023-10-31T03:29:01;15.85;;;6.05;;
22270;SDS011;11304;53.520;10.104;2023-10-31T03:31:27;12.00;;;6.88;;
22270;SDS011;11304;53.520;10.104;2023-10-31T03:33:53;8.32;;;6.40;;
22270;SDS011;11304;53.520;10.104;2023-10-31T03:36:19;10.82;;;7.25;;
22270;SDS011;11304;53.520;10.104;2023-10-31T03:38:45;7.68;;;6.30;;
22270;SDS011;11304;53.520;10.104;2023-10-31T03:41:11;9.55;;;6.70;;
22270;SDS011;11304;53.520;10.104;2023-10-31T03:43:38;10.88;;;6.70;;
22270;SDS011;11304;53.520;10.104;2023-10-31T03:46:04;12.57;;;7.30;;
22270;SDS011;11304;53.520;10.104;2023-10-31T03:48:30;10.82;;;6.55;;
22270;SDS011;11304;53.520;10.104;2023-10-31T03:50:56;11.98;;;7.63;;
22270;SDS011;11304;53.520;10.104;2023-10-31T03:53:22;10.77;;;7.43;;
22270;SDS011;11304;53.520;10.104;2023-10-31T03:55:48;11.38;;;6.90;;
22270;SDS011;11304;53.520;10.104;2023-10-31T03:58:14;15.32;;;7.75;;
22270;SDS011;11304;53.520;10.104;2023-10-31T04:00:40;8.93;;;7.03;;
22270;SDS011;11304;53.520;10.104;2023-10-31T04:03:10;11.98;;;7.15;;
22270;SDS011;11304;53.520;10.104;2023-10-31T04:05:36;11.23;;;7.05;;
22270;SDS011;11304;53.520;10.104;2023-10-31T04:08:02;10.15;;;7.00;;
22270;SDS011;11304;53.520;10.104;2023-10-31T04:10:28;6.70;;;5.97;;
22270;SDS011;11304;53.520;10.104;2023-10-31T04:12:54;8.82;;;6.55;;
22270;SDS011;11304;53.520;10.104;2023-10-31T04:15:20;6.65;;;5.88;;
22270;SDS011;11304;53.520;10.104;2023-10-31T04:17:47;9.65;;;6.38;;
22270;SDS011;11304;53.520;10.104;2023-10-31T04:20:13;11.18;;;7.03;;
22270;SDS011;11304;53.520;10.104;2023-10-31T04:22:39;10.55;;;7.50;;
22270;SDS011;11304;53.520;10.104;2023-10-31T04:25:05;14.82;;;7.22;;
22270;SDS011;11304;53.520;10.104;2023-10-31T04:27:31;9.38;;;7.32;;
22270;SDS011;11304;53.520;10.104;2023-10-31T04:29:57;7.43;;;6.65;;
22270;SDS011;11304;53.520;10.104;2023-10-31T04:32:23;11.68;;;7.28;;
22270;SDS011;11304;53.520;10.104;2023-10-31T04:34:49;12.45;;;6.82;;
22270;SDS011;11304;53.520;10.104;2023-10-31T04:37:15;9.48;;;7.18;;
22270;SDS011;11304;53.520;10.104;2023-10-31T04:39:41;8.10;;;7.13;;
22270;SDS011;11304;53.520;10.104;2023-10-31T04:42:07;13.57;;;7.28;;
22270;SDS011;11304;53.520;10.104;2023-10-31T04:44:33;11.45;;;7.47;;
22270;SDS011;11304;53.520;10.104;2023-10-31T04:46:59;9.55;;;7.57;;
22270;SDS011;11304;53.520;10.104;2023-10-31T04:49:25;9.50;;;7.00;;
22270;SDS011;11304;53.520;10.104;2023-10-31T04:51:51;7.22;;;6.05;;
22270;SDS011;11304;53.520;10.104;2023-10-31T04:54:17;8.63;;;6.90;;
22270;SDS011;11304;53.520;10.104;2023-10-31T04:56:43;11.70;;;8.10;;
22270;SDS011;11304;53.520;10.104;2023-10-31T04:59:09;11.40;;;7.03;;
22270;SDS011;11304;53.520;10.104;2023-10-31T05:01:35;9.13;;;6.35;;
22270;SDS011;11304;53.520;10.104;2023-10-31T05:04:02;11.05;;;7.05;;
22270;SDS011;11304;53.520;10.104;2023-10-31T05:06:28;8.57;;;7.00;;
22270;SDS011;11304;53.520;10.104;2023-10-31T05:08:54;7.70;;;6.53;;
22270;SDS011;11304;53.520;10.104;2023-10-31T05:11:20;9.20;;;6.95;;
22270;SDS011;11304;53.520;10.104;2023-10-31T05:13:46;9.77;;;6.95;;
22270;SDS011;11304;53.520;10.104;2023-10-31T05:16:12;8.48;;;7.57;;
22270;SDS011;11304;53.520;10.104;2023-10-31T05:18:38;10.73;;;7.70;;
22270;SDS011;11304;53.520;10.104;2023-10-31T05:21:04;8.13;;;6.60;;
22270;SDS011;11304;53.520;10.104;2023-10-31T05:23:30;7.72;;;6.95;;
22270;SDS011;11304;53.520;10.104;2023-10-31T05:25:57;9.60;;;7.15;;
22270;SDS011;11304;53.520;10.104;2023-10-31T05:28:23;9.88;;;7.82;;
22270;SDS011;11304;53.520;10.104;2023-10-31T05:30:49;9.38;;;7.60;;
22270;SDS011;11304;53.520;10.104;2023-10-31T05:33:15;9.40;;;7.93;;
22270;SDS011;11304;53.520;10.104;2023-10-31T05:35:42;7.65;;;6.40;;
22270;SDS011;11304;53.520;10.104;2023-10-31T05:38:08;9.63;;;7.00;;
22270;SDS011;11304;53.520;10.104;2023-10-31T05:40:34;8.95;;;7.28;;
22270;SDS011;11304;53.520;10.104;2023-10-31T05:43:00;11.55;;;8.73;;
22270;SDS011;11304;53.520;10.104;2023-10-31T05:45:27;8.48;;;7.63;;
22270;SDS011;11304;53.520;10.104;2023-10-31T05:47:54;8.75;;;7.75;;
22270;SDS011;11304;53.520;10.104;2023-10-31T05:50:20;12.05;;;9.50;;
22270;SDS011;11304;53.520;10.104;2023-10-31T05:52:46;10.88;;;8.20;;
22270;SDS011;11304;53.520;10.104;2023-10-31T05:55:12;9.75;;;8.05;;
22270;SDS011;11304;53.520;10.104;2023-10-31T05:57:38;9.80;;;8.77;;
22270;SDS011;11304;53.520;10.104;2023-10-31T06:00:05;9.55;;;7.68;;
22270;SDS011;11304;53.520;10.104;2023-10-31T06:02:31;9.85;;;7.93;;
22270;SDS011;11304;53.520;10.104;2023-10-31T06:04:58;8.52;;;6.55;;
22270;SDS011;11304;53.520;10.104;2023-10-31T06:07:24;8.38;;;7.40;;
22270;SDS011;11304;53.520;10.104;2023-10-31T06:09:50;7.43;;;6.63;;
22270;SDS011;11304;53.520;10.104;2023-10-31T06:12:16;7.40;;;6.60;;
22270;SDS011;11304;53.520;10.104;2023-10-31T06:14:42;7.97;;;6.65;;
22270;SDS011;11304;53.520;10.104;2023-10-31T06:17:08;9.50;;;8.40;;
22270;SDS011;11304;53.520;10.104;2023-10-31T06:19:35;9.35;;;8.02;;
22270;SDS011;11304;53.520;10.104;2023-10-31T06:22:01;10.63;;;9.15;;
22270;SDS011;11304;53.520;10.104;2023-10-31T06:24:27;10.13;;;8.25;;
22270;SDS011;11304;53.520;10.104;2023-10-31T06:26:54;9.18;;;7.93;;
22270;SDS011;11304;53.520;10.104;2023-10-31T06:29:20;10.52;;;9.27;;
22270;SDS011;11304;53.520;10.104;2023-10-31T06:31:46;10.65;;;9.55;;
22270;SDS011;11304;53.520;10.104;2023-10-31T06:34:12;13.02;;;9.90;;
22270;SDS011;11304;53.520;10.104;2023-10-31T06:36:38;12.27;;;9.43;;
22270;SDS011;11304;53.520;10.104;2023-10-31T06:39:04;9.35;;;8.18;;
22270;SDS011;11304;53.520;10.104;2023-10-31T06:41:31;7.78;;;6.05;;
22270;SDS011;11304;53.520;10.104;2023-10-31T06:43:57;7.57;;;6.78;;
22270;SDS011;11304;53.520;10.104;2023-10-31T06:46:23;9.07;;;6.85;;
22270;SDS011;11304;53.520;10.104;2023-10-31T06:48:49;7.32;;;5.72;;
22270;SDS011;11304;53.520;10.104;2023-10-31T06:51:15;5.82;;;4.75;;
22270;SDS011;11304;53.520;10.104;2023-10-31T06:53:41;4.82;;;4.32;;
22270;SDS011;11304;53.520;10.104;2023-10-31T06:56:07;8.25;;;4.45;;
22270;SDS011;11304;53.520;10.104;2023-10-31T06:58:33;4.22;;;3.38;;
22270;SDS011;11304;53.520;10.104;2023-10-31T07:00:59;2.90;;;2.45;;
22270;SDS011;11304;53.520;10.104;2023-10-31T07:03:26;2.30;;;2.05;;
22270;SDS011;11304;53.520;10.104;2023-10-31T07:05:52;2.58;;;1.85;;
22270;SDS011;11304;53.520;10.104;2023-10-31T07:08:18;3.45;;;1.42;;
22270;SDS011;11304;53.520;10.104;2023-10-31T07:10:44;1.90;;;1.23;;
22270;SDS011;11304;53.520;10.104;2023-10-31T07:13:11;3.10;;;1.27;;
22270;SDS011;11304;53.520;10.104;2023-10-31T07:15:38;2.95;;;2.47;;
22270;SDS011;11304;53.520;10.104;2023-10-31T07:18:05;6.45;;;5.10;;
22270;SDS011;11304;53.520;10.104;2023-10-31T07:20:32;6.28;;;4.30;;
22270;SDS011;11304;53.520;10.104;2023-10-31T07:22:58;5.00;;;4.20;;
22270;SDS011;11304;53.520;10.104;2023-10-31T07:25:24;6.28;;;5.63;;
22270;SDS011;11304;53.520;10.104;2023-10-31T07:27:51;5.43;;;4.93;;
22270;SDS011;11304;53.520;10.104;2023-10-31T07:30:17;9.18;;;6.32;;
22270;SDS011;11304;53.520;10.104;2023-10-31T07:32:43;6.88;;;5.65;;
22270;SDS011;11304;53.520;10.104;2023-10-31T07:35:09;9.20;;;8.20;;
22270;SDS011;11304;53.520;10.104;2023-10-31T07:37:35;10.52;;;9.43;;
22270;SDS011;11304;53.520;10.104;2023-10-31T07:40:01;11.48;;;10.27;;
22270;SDS011;11304;53.520;10.104;2023-10-31T07:42:29;11.95;;;10.48;;
22270;SDS011;11304;53.520;10.104;2023-10-31T07:44:55;13.55;;;11.07;;
22270;SDS011;11304;53.520;10.104;2023-10-31T07:47:21;11.25;;;10.07;;
22270;SDS011;11304;53.520;10.104;2023-10-31T07:49:47;13.18;;;10.07;;
22270;SDS011;11304;53.520;10.104;2023-10-31T07:52:14;10.35;;;9.27;;
22270;SDS011;11304;53.520;10.104;2023-10-31T07:54:40;10.63;;;8.90;;
22270;SDS011;11304;53.520;10.104;2023-10-31T07:57:06;7.38;;;6.55;;
22270;SDS011;11304;53.520;10.104;2023-10-31T07:59:35;7.97;;;6.20;;
22270;SDS011;11304;53.520;10.104;2023-10-31T08:02:01;4.78;;;4.28;;
22270;SDS011;11304;53.520;10.104;2023-10-31T08:04:28;3.70;;;3.00;;
22270;SDS011;11304;53.520;10.104;2023-10-31T08:06:55;4.00;;;1.60;;
22270;SDS011;11304;53.520;10.104;2023-10-31T08:09:21;3.35;;;1.17;;
22270;SDS011;11304;53.520;10.104;2023-10-31T08:11:47;1.60;;;0.90;;
22270;SDS011;11304;53.520;10.104;2023-10-31T08:14:13;1.52;;;0.95;;
22270;SDS011;11304;53.520;10.104;2023-10-31T08:16:41;0.80;;;0.63;;
22270;SDS011;11304;53.520;10.104;2023-10-31T08:19:07;1.38;;;0.80;;
22270;SDS011;11304;53.520;10.104;2023-10-31T08:21:33;0.80;;;0.50;;
22270;SDS011;11304;53.520;10.104;2023-10-31T08:24:03;3.55;;;0.77;;
22270;SDS011;11304;53.520;10.104;2023-10-31T08:26:32;1.48;;;1.10;;
22270;SDS011;11304;53.520;10.104;2023-10-31T08:28:59;1.88;;;0.90;;
22270;SDS011;11304;53.520;10.104;2023-10-31T08:31:25;1.48;;;0.43;;
22270;SDS011;11304;53.520;10.104;2023-10-31T08:33:51;1.15;;;0.80;;
22270;SDS011;11304;53.520;10.104;2023-10-31T08:36:17;1.98;;;1.02;;
22270;SDS011;11304;53.520;10.104;2023-10-31T08:38:43;2.15;;;1.40;;
22270;SDS011;11304;53.520;10.104;2023-10-31T08:41:09;2.47;;;0.95;;
22270;SDS011;11304;53.520;10.104;2023-10-31T08:43:35;1.83;;;0.60;;
22270;SDS011;11304;53.520;10.104;2023-10-31T08:46:01;1.15;;;0.70;;
22270;SDS011;11304;53.520;10.104;2023-10-31T08:48:28;0.80;;;0.25;;
22270;SDS011;11304;53.520;10.104;2023-10-31T08:50:54;0.80;;;0.30;;
22270;SDS011;11304;53.520;10.104;2023-10-31T08:53:20;0.95;;;0.28;;
22270;SDS011;11304;53.520;10.104;2023-10-31T08:55:46;0.65;;;0.10;;
22270;SDS011;11304;53.520;10.104;2023-10-31T08:58:12;0.77;;;0.20;;
22270;SDS011;11304;53.520;10.104;2023-10-31T09:00:38;0.90;;;0.10;;
22270;SDS011;11304;53.520;10.104;2023-10-31T09:03:07;1.95;;;0.20;;
22270;SDS011;11304;53.520;10.104;2023-10-31T09:05:33;1.00;;;0.13;;
22270;SDS011;11304;53.520;10.104;2023-10-31T09:07:59;0.55;;;0.22;;
22270;SDS011;11304;53.520;10.104;2023-10-31T09:10:25;2.40;;;0.52;;
22270;SDS011;11304;53.520;10.104;2023-10-31T09:12:52;2.22;;;0.20;;
22270;SDS011;11304;53.520;10.104;2023-10-31T09:15:18;0.20;;;0.15;;
22270;SDS011;11304;53.520;10.104;2023-10-31T09:17:44;0.30;;;0.20;;
22270;SDS011;11304;53.520;10.104;2023-10-31T09:20:10;0.30;;;0.13;;
22270;SDS011;11304;53.520;10.104;2023-10-31T09:22:37;0.28;;;0.20;;
22270;SDS011;11304;53.520;10.104;2023-10-31T09:25:03;0.10;;;0.08;;
22270;SDS011;11304;53.520;10.104;2023-10-31T09:27:29;0.65;;;0.10;;
22270;SDS011;11304;53.520;10.104;2023-10-31T09:29:55;0.85;;;0.70;;
22270;SDS011;11304;53.520;10.104;2023-10-31T09:32:21;1.42;;;0.75;;
22270;SDS011;11304;53.520;10.104;2023-10-31T09:34:47;1.15;;;0.50;;
22270;SDS011;11304;53.520;10.104;2023-10-31T09:37:14;0.60;;;0.32;;
22270;SDS011;11304;53.520;10.104;2023-10-31T09:39:40;1.77;;;0.40;;
22270;SDS011;11304;53.520;10.104;2023-10-31T09:42:06;1.08;;;0.60;;
22270;SDS011;11304;53.520;10.104;2023-10-31T09:44:32;1.98;;;0.85;;
22270;SDS011;11304;53.520;10.104;2023-10-31T09:46:58;1.75;;;0.77;;
22270;SDS011;11304;53.520;10.104;2023-10-31T09:49:25;2.58;;;0.85;;
22270;SDS011;11304;53.520;10.104;2023-10-31T09:51:51;2.17;;;0.60;;
22270;SDS011;11304;53.520;10.104;2023-10-31T09:54:17;2.80;;;0.75;;
22270;SDS011;11304;53.520;10.104;2023-10-31T09:56:43;1.63;;;0.57;;
22270;SDS011;11304;53.520;10.104;2023-10-31T09:59:09;5.43;;;0.52;;
22270;SDS011;11304;53.520;10.104;2023-10-31T10:01:35;0.47;;;0.35;;
22270;SDS011;11304;53.520;10.104;2023-10-31T10:04:02;0.35;;;0.20;;
22270;SDS011;11304;53.520;10.104;2023-10-31T10:06:28;1.77;;;0.55;;
22270;SDS011;11304;53.520;10.104;2023-10-31T10:08:57;1.27;;;0.50;;
22270;SDS011;11304;53.520;10.104;2023-10-31T10:13:51;2.47;;;0.52;;
22270;SDS011;11304;53.520;10.104;2023-10-31T10:16:28;1.15;;;0.40;;
22270;SDS011;11304;53.520;10.104;2023-10-31T10:18:54;0.93;;;0.55;;
22270;SDS011;11304;53.520;10.104;2023-10-31T10:21:20;1.33;;;0.40;;
22270;SDS011;11304;53.520;10.104;2023-10-31T10:23:47;1.45;;;0.47;;
22270;SDS011;11304;53.520;10.104;2023-10-31T10:26:16;2.35;;;0.80;;
22270;SDS011;11304;53.520;10.104;2023-10-31T10:28:42;1.08;;;0.45;;
22270;SDS011;11304;53.520;10.104;2023-10-31T10:31:13;2.20;;;0.77;;
22270;SDS011;11304;53.520;10.104;2023-10-31T10:33:40;0.90;;;0.47;;
22270;SDS011;11304;53.520;10.104;2023-10-31T10:36:07;2.35;;;0.80;;
22270;SDS011;11304;53.520;10.104;2023-10-31T10:38:34;2.50;;;0.80;;
22270;SDS011;11304;53.520;10.104;2023-10-31T10:41:01;1.83;;;0.80;;
22270;SDS011;11304;53.520;10.104;2023-10-31T10:43:27;1.92;;;0.80;;
22270;SDS011;11304;53.520;10.104;2023-10-31T10:45:54;1.30;;;0.90;;
22270;SDS011;11304;53.520;10.104;2023-10-31T10:48:21;1.70;;;0.80;;
22270;SDS011;11304;53.520;10.104;2023-10-31T10:50:51;2.40;;;0.95;;
22270;SDS011;11304;53.520;10.104;2023-10-31T10:53:24;1.55;;;0.70;;
22270;SDS011;11304;53.520;10.104;2023-10-31T10:56:00;1.95;;;0.77;;
22270;SDS011;11304;53.520;10.104;2023-10-31T10:58:44;1.70;;;0.75;;
22270;SDS011;11304;53.520;10.104;2023-10-31T11:01:17;1.17;;;0.70;;
22270;SDS011;11304;53.520;10.104;2023-10-31T11:03:44;3.78;;;0.80;;
22270;SDS011;11304;53.520;10.104;2023-10-31T11:06:11;2.38;;;1.00;;
22270;SDS011;11304;53.520;10.104;2023-10-31T11:08:38;1.98;;;1.05;;
22270;SDS011;11304;53.520;10.104;2023-10-31T11:11:05;2.55;;;1.02;;
22270;SDS011;11304;53.520;10.104;2023-10-31T11:13:31;1.25;;;0.70;;
22270;SDS011;11304;53.520;10.104;2023-10-31T11:16:02;1.63;;;0.63;;
22270;SDS011;11304;53.520;10.104;2023-10-31T11:18:30;1.52;;;0.52;;
22270;SDS011;11304;53.520;10.104;2023-10-31T11:20:56;2.50;;;0.80;;
22270;SDS011;11304;53.520;10.104;2023-10-31T11:23:22;2.75;;;1.17;;
22270;SDS011;11304;53.520;10.104;2023-10-31T11:25:49;2.53;;;0.80;;
22270;SDS011;11304;53.520;10.104;2023-10-31T11:28:18;1.15;;;0.70;;
22270;SDS011;11304;53.520;10.104;2023-10-31T11:30:48;2.78;;;0.93;;
22270;SDS011;11304;53.520;10.104;2023-10-31T11:33:16;1.10;;;0.88;;
22270;SDS011;11304;53.520;10.104;2023-10-31T11:35:42;2.08;;;1.00;;
22270;SDS011;11304;53.520;10.104;2023-10-31T11:38:11;2.80;;;1.10;;
22270;SDS011;11304;53.520;10.104;2023-10-31T11:40:46;1.75;;;0.95;;
22270;SDS011;11304;53.520;10.104;2023-10-31T11:43:24;2.72;;;1.20;;
22270;SDS011;11304;53.520;10.104;2023-10-31T11:45:50;3.22;;;1.25;;
22270;SDS011;11304;53.520;10.104;2023-10-31T11:48:19;2.28;;;1.13;;
22270;SDS011;11304;53.520;10.104;2023-10-31T11:51:05;1.73;;;1.27;;
22270;SDS011;11304;53.520;10.104;2023-10-31T11:53:31;2.63;;;1.35;;
22270;SDS011;11304;53.520;10.104;2023-10-31T11:55:58;3.67;;;1.30;;
22270;SDS011;11304;53.520;10.104;2023-10-31T11:58:24;1.92;;;1.17;;
22270;SDS011;11304;53.520;10.104;2023-10-31T12:01:05;2.53;;;0.90;;
22270;SDS011;11304;53.520;10.104;2023-10-31T12:03:38;1.60;;;0.70;;
22270;SDS011;11304;53.520;10.104;2023-10-31T12:06:05;1.80;;;0.82;;
22270;SDS011;11304;53.520;10.104;2023-10-31T12:08:41;2.15;;;0.80;;
22270;SDS011;11304;53.520;10.104;2023-10-31T12:11:14;2.25;;;1.00;;
22270;SDS011;11304;53.520;10.104;2023-10-31T12:13:57;2.45;;;0.70;;
22270;SDS011;11304;53.520;10.104;2023-10-31T12:16:28;3.22;;;1.10;;
22270;SDS011;11304;53.520;10.104;2023-10-31T12:18:58;2.42;;;0.90;;
22270;SDS011;11304;53.520;10.104;2023-10-31T12:21:35;3.22;;;0.80;;
22270;SDS011;11304;53.520;10.104;2023-10-31T12:24:05;2.35;;;0.60;;
22270;SDS011;11304;53.520;10.104;2023-10-31T12:26:32;1.38;;;0.68;;
22270;SDS011;11304;53.520;10.104;2023-10-31T12:29:06;1.40;;;0.70;;
22270;SDS011;11304;53.520;10.104;2023-10-31T12:31:33;1.60;;;0.50;;
22270;SDS011;11304;53.520;10.104;2023-10-31T12:34:05;0.98;;;0.45;;
22270;SDS011;11304;53.520;10.104;2023-10-31T12:36:32;2.55;;;0.60;;
22270;SDS011;11304;53.520;10.104;2023-10-31T12:38:58;1.17;;;0.40;;
22270;SDS011;11304;53.520;10.104;2023-10-31T12:41:24;2.80;;;0.60;;
22270;SDS011;11304;53.520;10.104;2023-10-31T12:43:50;1.35;;;0.40;;
22270;SDS011;11304;53.520;10.104;2023-10-31T12:46:29;1.95;;;0.60;;
22270;SDS011;11304;53.520;10.104;2023-10-31T12:48:56;1.20;;;0.40;;
22270;SDS011;11304;53.520;10.104;2023-10-31T12:51:22;0.40;;;0.20;;
22270;SDS011;11304;53.520;10.104;2023-10-31T12:53:49;1.30;;;0.50;;
22270;SDS011;11304;53.520;10.104;2023-10-31T12:59:00;1.85;;;0.68;;
22270;SDS011;11304;53.520;10.104;2023-10-31T13:01:26;1.70;;;0.50;;
22270;SDS011;11304;53.520;10.104;2023-10-31T13:03:52;2.08;;;0.50;;
22270;SDS011;11304;53.520;10.104;2023-10-31T13:06:19;1.73;;;0.75;;
22270;SDS011;11304;53.520;10.104;2023-10-31T13:08:45;1.45;;;0.55;;
22270;SDS011;11304;53.520;10.104;2023-10-31T13:11:13;1.83;;;0.70;;
22270;SDS011;11304;53.520;10.104;2023-10-31T13:13:39;3.57;;;0.80;;
22270;SDS011;11304;53.520;10.104;2023-10-31T13:16:05;1.35;;;0.50;;
22270;SDS011;11304;53.520;10.104;2023-10-31T13:18:32;4.78;;;0.77;;
22270;SDS011;11304;53.520;10.104;2023-10-31T13:20:58;2.67;;;0.98;;
22270;SDS011;11304;53.520;10.104;2023-10-31T13:23:24;3.53;;;0.82;;
22270;SDS011;11304;53.520;10.104;2023-10-31T13:25:50;1.98;;;0.75;;
22270;SDS011;11304;53.520;10.104;2023-10-31T13:28:16;1.30;;;0.70;;
22270;SDS011;11304;53.520;10.104;2023-10-31T13:30:42;2.45;;;0.80;;
22270;SDS011;11304;53.520;10.104;2023-10-31T13:33:10;2.53;;;0.80;;
22270;SDS011;11304;53.520;10.104;2023-10-31T13:35:36;3.60;;;0.55;;
22270;SDS011;11304;53.520;10.104;2023-10-31T13:38:03;2.00;;;0.60;;
22270;SDS011;11304;53.520;10.104;2023-10-31T13:40:29;3.80;;;0.80;;
22270;SDS011;11304;53.520;10.104;2023-10-31T13:42:55;5.85;;;0.90;;
22270;SDS011;11304;53.520;10.104;2023-10-31T13:45:21;2.10;;;0.70;;
22270;SDS011;11304;53.520;10.104;2023-10-31T13:47:47;2.97;;;0.73;;
22270;SDS011;11304;53.520;10.104;2023-10-31T13:50:13;4.32;;;1.00;;
22270;SDS011;11304;53.520;10.104;2023-10-31T13:52:40;3.65;;;0.82;;
22270;SDS011;11304;53.520;10.104;2023-10-31T13:55:07;2.20;;;0.93;;
22270;SDS011;11304;53.520;10.104;2023-10-31T13:57:33;3.40;;;0.80;;
22270;SDS011;11304;53.520;10.104;2023-10-31T13:59:59;3.67;;;1.25;;
22270;SDS011;11304;53.520;10.104;2023-10-31T14:02:25;4.15;;;1.40;;
22270;SDS011;11304;53.520;10.104;2023-10-31T14:04:53;7.15;;;1.65;;
22270;SDS011;11304;53.520;10.104;2023-10-31T14:07:22;3.45;;;1.52;;
22270;SDS011;11304;53.520;10.104;2023-10-31T14:09:49;3.78;;;1.45;;
22270;SDS011;11304;53.520;10.104;2023-10-31T14:12:15;3.78;;;1.20;;
22270;SDS011;11304;53.520;10.104;2023-10-31T14:14:41;1.15;;;1.05;;
22270;SDS011;11304;53.520;10.104;2023-10-31T14:17:07;2.67;;;1.17;;
22270;SDS011;11304;53.520;10.104;2023-10-31T14:19:33;2.38;;;0.98;;
22270;SDS011;11304;53.520;10.104;2023-10-31T14:22:00;3.17;;;1.10;;
22270;SDS011;11304;53.520;10.104;2023-10-31T14:24:26;1.48;;;0.80;;
22270;SDS011;11304;53.520;10.104;2023-10-31T14:26:53;2.33;;;0.90;;
22270;SDS011;11304;53.520;10.104;2023-10-31T14:29:19;2.15;;;0.70;;
22270;SDS011;11304;53.520;10.104;2023-10-31T14:31:46;2.25;;;0.70;;
22270;SDS011;11304;53.520;10.104;2023-10-31T14:34:12;2.35;;;0.82;;